Time;durP1;ratioP1;P1;durP2;ratioP2;P2;SDS_P1;SDS_P2;PMS_P1;PMS_P2;Temp;Humidity;BMP_temperature;BMP_pressure;BME280_temperature;BME280_humidity;BME280_pressure;Samples;Min_cycle;Max_cycle;Signal;HPM_P1;HPM_P2
2022/04/25 00:01:36;;;;;;;;;;;;;;;12.33;53.42;100849.16;4426155;32;19965;-68
2022/04/25 00:04:03;;;;;;;;;;;;;;;12.53;52.95;100852.56;4425271;32;19989;-68
2022/04/25 00:06:29;;;;;;;;;;;;;;;12.60;52.74;100843.87;4425182;32;19949;-68
2022/04/25 00:08:54;;;;;;;;;;;;;;;12.45;52.91;100851.22;4426471;32;19957;-68
2022/04/25 00:11:20;;;;;;;;;;;;;;;12.57;52.81;100851.22;4428018;32;20013;-68
2022/04/25 00:13:46;;;;;;;;;;;;;;;12.87;51.86;100838.59;4424494;32;19964;-68
2022/04/25 00:16:11;;;;;;;;;;;;;;;12.82;51.75;100845.59;4425542;32;20038;-68
2022/04/25 00:18:37;;;;;;;;;;;;;;;12.58;52.47;100840.72;4427866;32;19953;-68
2022/04/25 00:21:02;;;;;;;;;;;;;;;12.43;52.93;100839.56;4426064;32;20012;-68
2022/04/25 00:23:28;;;;;;;;;;;;;;;12.46;52.97;100839.47;4426339;32;19961;-68
2022/04/25 00:25:53;;;;;;;;;;;;;;;12.47;52.89;100840.25;4426864;32;20078;-68
2022/04/25 00:28:19;;;;;;;;;;;;;;;12.41;53.26;100831.53;4425645;32;19953;-68
2022/04/25 00:30:47;;;;;;;;;;;;;;;12.11;54.21;100832.03;4425440;32;19969;-68
2022/04/25 00:33:13;;;;;;;;;;;;;;;12.02;54.16;100834.72;4425993;32;19993;-68
2022/04/25 00:35:38;;;;;;;;;;;;;;;11.85;54.99;100827.56;4428067;32;19968;-68
2022/04/25 00:38:04;;;;;;;;;;;;;;;11.95;54.44;100832.09;4425554;32;20008;-68
2022/04/25 00:40:30;;;;;;;;;;;;;;;11.74;55.29;100825.03;4425728;32;19961;-68
2022/04/25 00:42:56;;;;;;;;;;;;;;;11.79;55.21;100824.47;4426172;32;19979;-68
2022/04/25 00:45:22;;;;;;;;;;;;;;;11.78;55.32;100819.25;4425068;32;19992;-68
2022/04/25 00:47:47;;;;;;;;;;;;;;;11.80;55.12;100819.63;4428033;32;20007;-68
2022/04/25 00:50:13;;;;;;;;;;;;;;;11.88;54.80;100816.16;4427031;32;19994;-68
2022/04/25 00:52:39;;;;;;;;;;;;;;;11.93;54.64;100818.44;4424513;32;19985;-68
2022/04/25 00:55:09;;;;;;;;;;;;;;;11.74;54.92;100810.94;4425398;32;19979;-68
2022/04/25 00:57:35;;;;;;;;;;;;;;;11.98;54.42;100814.28;4425365;32;19954;-68
2022/04/25 01:00:02;;;;;;;;;;;;;;;12.07;53.95;100803.13;4424303;32;19968;-68
2022/04/25 01:02:28;;;;;;;;;;;;;;;12.61;52.51;100806.72;4424196;32;19977;-68
2022/04/25 01:04:54;;;;;;;;;;;;;;;12.93;51.61;100803.69;4426551;32;19999;-68
2022/04/25 01:07:20;;;;;;;;;;;;;;;12.85;51.72;100810.78;4427743;32;20027;-68
2022/04/25 01:09:45;;;;;;;;;;;;;;;12.94;51.51;100810.09;4426547;32;19957;-68
2022/04/25 01:12:12;;;;;;;;;;;;;;;12.64;52.08;100805.81;4422814;32;19985;-68
2022/04/25 01:14:38;;;;;;;;;;;;;;;12.16;53.40;100803.28;4423936;32;19945;-68
2022/04/25 01:17:03;;;;;;;;;;;;;;;11.89;54.04;100806.47;4425574;32;19966;-68
2022/04/25 01:19:29;;;;;;;;;;;;;;;11.67;54.60;100807.50;4425528;32;19963;-68
2022/04/25 01:27:18;;;;;;;;;;;;;;;11.77;55.11;100800.78;4454560;32;19987;-69
2022/04/25 01:32:22;;;;;;;;;;;;;;;11.38;56.21;100789.72;3957822;31;15720148;-68
2022/04/25 01:34:48;;;;;;;;;;;;;;;11.38;56.21;100789.72;4443473;32;19957;-68
2022/04/25 01:37:15;;;;;;;;;;;;;;;10.87;57.07;100787.84;4442742;32;19963;-68
2022/04/25 01:39:43;;;;;;;;;;;;;;;10.88;57.13;100792.22;4445218;32;20455;-68
2022/04/25 01:42:09;;;;;;;;;;;;;;;10.79;57.60;100789.22;4444694;32;20017;-69
2022/04/25 01:44:35;;;;;;;;;;;;;;;10.72;57.87;100789.41;4438577;32;20502;-69
2022/04/25 01:47:00;;;;;;;;;;;;;;;10.74;57.99;100784.16;4444849;32;20357;-69
2022/04/25 01:49:26;;;;;;;;;;;;;;;10.58;58.15;100778.50;4442397;32;19984;-69
2022/04/25 01:51:52;;;;;;;;;;;;;;;10.44;58.56;100785.25;4444550;32;19965;-69
2022/04/25 01:54:23;;;;;;;;;;;;;;;10.24;59.25;100778.84;4440958;32;19964;-69
2022/04/25 01:56:49;;;;;;;;;;;;;;;10.22;59.35;100780.53;4445483;32;20346;-69
2022/04/25 01:59:15;;;;;;;;;;;;;;;10.20;59.46;100774.53;4441065;32;19997;-69
2022/04/25 02:01:40;;;;;;;;;;;;;;;10.19;59.50;100775.78;4442934;32;20015;-70
2022/04/25 02:04:06;;;;;;;;;;;;;;;10.49;58.74;100767.06;4439439;32;20046;-70
2022/04/25 02:06:32;;;;;;;;;;;;;;;9.93;60.44;100769.88;4441346;32;19996;-70
2022/04/25 02:08:57;;;;;;;;;;;;;;;10.10;59.88;100757.47;4439976;32;20387;-70
2022/04/25 02:11:24;;;;;;;;;;;;;;;9.93;60.30;100752.19;4437223;32;19965;-70
2022/04/25 02:13:51;;;;;;;;;;;;;;;9.81;60.72;100748.03;4435985;32;19972;-70
2022/04/25 02:16:17;;;;;;;;;;;;;;;9.79;61.00;100744.84;4440095;32;19989;-70
2022/04/25 02:18:43;;;;;;;;;;;;;;;10.31;59.41;100746.97;4440134;32;20056;-70
2022/04/25 02:21:09;;;;;;;;;;;;;;;9.83;60.24;100741.97;4445068;32;20000;-70
2022/04/25 02:23:35;;;;;;;;;;;;;;;9.85;60.38;100747.97;4443113;32;19953;-70
2022/04/25 02:26:01;;;;;;;;;;;;;;;9.74;60.78;100747.38;4439611;32;20321;-70
2022/04/25 02:28:27;;;;;;;;;;;;;;;9.65;61.21;100752.78;4440542;32;20021;-70
2022/04/25 02:30:53;;;;;;;;;;;;;;;10.17;59.73;100745.28;4439678;32;19957;-70
2022/04/25 02:33:19;;;;;;;;;;;;;;;10.25;59.10;100749.53;4439048;32;20346;-70
2022/04/25 02:35:44;;;;;;;;;;;;;;;10.20;59.71;100746.41;4439901;32;20374;-70
2022/04/25 02:38:10;;;;;;;;;;;;;;;10.28;58.90;100745.81;4440822;32;20385;-70
2022/04/25 02:40:36;;;;;;;;;;;;;;;9.61;60.96;100741.59;4435724;32;19984;-70
2022/04/25 02:43:01;;;;;;;;;;;;;;;9.99;60.40;100747.66;4436024;32;19998;-70
2022/04/25 02:45:28;;;;;;;;;;;;;;;10.19;59.63;100745.66;4426289;32;20004;-70
2022/04/25 02:47:53;;;;;;;;;;;;;;;10.17;59.62;100748.09;4433242;32;19992;-70
2022/04/25 02:50:19;;;;;;;;;;;;;;;10.20;59.44;100741.59;4431323;32;20197;-70
2022/04/25 02:52:45;;;;;;;;;;;;;;;10.22;59.05;100744.78;4432007;32;20347;-70
2022/04/25 02:55:11;;;;;;;;;;;;;;;10.20;59.20;100737.97;4432457;32;19988;-70
2022/04/25 02:57:37;;;;;;;;;;;;;;;10.33;58.58;100738.87;4429370;32;19996;-70
2022/04/25 03:00:03;;;;;;;;;;;;;;;10.35;58.47;100733.62;4428378;32;19954;-70
2022/04/25 03:02:29;;;;;;;;;;;;;;;10.29;58.70;100733.34;4430613;32;19997;-70
2022/04/25 03:04:54;;;;;;;;;;;;;;;10.23;58.87;100726.66;4428694;32;20461;-70
2022/04/25 03:07:20;;;;;;;;;;;;;;;10.17;58.82;100734.03;4432816;32;19973;-70
2022/04/25 03:09:46;;;;;;;;;;;;;;;10.21;58.82;100725.53;4431833;32;20003;-70
2022/04/25 03:12:11;;;;;;;;;;;;;;;10.06;59.45;100739.06;4427978;32;20335;-70
2022/04/25 03:14:37;;;;;;;;;;;;;;;10.13;59.00;100733.31;4429756;32;19997;-70
2022/04/25 03:17:03;;;;;;;;;;;;;;;10.13;59.30;100729.72;4424198;32;19999;-70
2022/04/25 03:19:29;;;;;;;;;;;;;;;9.99;59.49;100734.41;4430706;32;19946;-70
2022/04/25 03:21:54;;;;;;;;;;;;;;;10.03;59.45;100725.88;4431948;32;20367;-70
2022/04/25 03:24:20;;;;;;;;;;;;;;;9.94;59.53;100734.09;4426037;32;19968;-70
2022/04/25 03:26:45;;;;;;;;;;;;;;;9.88;59.67;100733.81;4426444;32;20020;-70
2022/04/25 03:29:13;;;;;;;;;;;;;;;9.90;59.70;100733.38;4428856;32;19956;-71
2022/04/25 03:31:39;;;;;;;;;;;;;;;9.83;59.89;100733.53;4428670;32;19953;-69
2022/04/25 03:34:05;;;;;;;;;;;;;;;9.90;59.68;100734.19;4427912;32;19965;-70
2022/04/25 03:36:31;;;;;;;;;;;;;;;9.88;59.84;100738.66;4428474;32;19957;-70
2022/04/25 03:38:57;;;;;;;;;;;;;;;9.78;60.15;100736.84;4431810;32;19996;-70
2022/04/25 03:41:23;;;;;;;;;;;;;;;9.85;59.93;100743.13;4427503;32;20010;-70
2022/04/25 03:43:48;;;;;;;;;;;;;;;9.82;59.83;100735.56;4426789;32;20447;-70
2022/04/25 03:46:14;;;;;;;;;;;;;;;9.92;59.35;100737.34;4431702;32;20009;-70
2022/04/25 03:48:41;;;;;;;;;;;;;;;9.92;59.07;100734.53;4433795;32;20385;-69
2022/04/25 03:51:07;;;;;;;;;;;;;;;9.93;58.81;100732.53;4431681;32;19966;-69
2022/04/25 03:53:33;;;;;;;;;;;;;;;9.95;58.75;100735.69;4426833;32;20024;-69
2022/04/25 03:58:44;;;;;;;;;;;;;;;9.87;58.76;100734.25;4429232;32;20004;-70
2022/04/25 04:01:09;;;;;;;;;;;;;;;9.88;58.28;100738.66;4425844;32;20010;-70
2022/04/25 04:03:35;;;;;;;;;;;;;;;9.76;58.40;100734.47;4431325;32;19953;-70
2022/04/25 04:06:00;;;;;;;;;;;;;;;9.47;59.51;100727.06;4432546;32;19993;-70
2022/04/25 04:08:28;;;;;;;;;;;;;;;8.93;60.64;100722.88;4427287;32;19961;-69
2022/04/25 04:10:54;;;;;;;;;;;;;;;8.73;61.81;100730.44;4426080;32;20019;-69
2022/04/25 04:13:29;;;;;;;;;;;;;;;8.52;62.62;100731.56;4428692;32;20000;-69
2022/04/25 04:16:04;;;;;;;;;;;;;;;8.65;62.25;100729.75;4429628;32;20377;-69
2022/04/25 04:18:35;;;;;;;;;;;;;;;8.63;61.93;100735.00;4425985;32;19957;-69
2022/04/25 04:21:04;;;;;;;;;;;;;;;8.75;61.97;100731.59;4425782;32;20000;-69
2022/04/25 04:23:39;;;;;;;;;;;;;;;8.85;61.95;100732.63;4430799;32;19957;-69
2022/04/25 04:26:06;;;;;;;;;;;;;;;8.89;61.57;100733.34;4426634;32;19961;-69
2022/04/25 04:28:31;;;;;;;;;;;;;;;8.99;61.18;100733.16;4424972;32;19968;-69
2022/04/25 04:30:56;;;;;;;;;;;;;;;9.02;61.39;100726.69;4429372;32;19953;-69
2022/04/25 04:33:22;;;;;;;;;;;;;;;8.99;60.90;100730.38;4427568;32;19993;-69
2022/04/25 04:36:29;;;;;;;;;;;;;;;8.94;61.45;100728.06;4434220;32;19967;-69
2022/04/25 04:38:43;;;;;;;;;;;;;;;8.94;61.21;100728.06;4431818;32;20002;-69
2022/04/25 04:41:13;;;;;;;;;;;;;;;8.88;61.50;100721.34;4425764;32;19968;-70
2022/04/25 04:43:39;;;;;;;;;;;;;;;8.70;62.25;100743.31;4429820;32;20413;-70
2022/04/25 04:46:05;;;;;;;;;;;;;;;8.68;62.29;100736.53;4425366;32;20001;-70
2022/04/25 04:48:31;;;;;;;;;;;;;;;8.72;62.47;100738.06;4433272;32;20587;-70
2022/04/25 04:50:57;;;;;;;;;;;;;;;8.73;62.48;100738.84;4426013;32;20028;-70
2022/04/25 04:53:22;;;;;;;;;;;;;;;8.96;61.97;100744.47;4424659;32;20013;-69
2022/04/25 04:55:49;;;;;;;;;;;;;;;8.83;62.44;100751.91;4426997;32;20299;-69
2022/04/25 04:58:14;;;;;;;;;;;;;;;8.87;62.29;100750.62;4430416;32;20012;-70
2022/04/25 05:00:44;;;;;;;;;;;;;;;9.09;61.67;100763.09;4427527;32;19970;-70
2022/04/25 05:03:15;;;;;;;;;;;;;;;8.97;62.24;100760.88;4430592;32;20448;-69
2022/04/25 05:05:41;;;;;;;;;;;;;;;9.15;61.58;100754.97;4426702;32;19957;-69
2022/04/25 05:08:06;;;;;;;;;;;;;;;9.44;60.69;100756.81;4430374;32;20476;-69
2022/04/25 05:10:32;;;;;;;;;;;;;;;9.49;60.39;100759.13;4424462;32;19984;-69
2022/04/25 05:12:58;;;;;;;;;;;;;;;9.61;59.89;100760.50;4425642;32;19976;-69
2022/04/25 05:15:23;;;;;;;;;;;;;;;9.85;60.02;100765.59;4425078;32;20123;-70
2022/04/25 05:17:50;;;;;;;;;;;;;;;10.01;59.00;100756.44;4429475;32;20416;-70
2022/04/25 05:20:17;;;;;;;;;;;;;;;10.10;58.50;100756.69;4431407;32;20491;-70
2022/04/25 05:22:45;;;;;;;;;;;;;;;9.94;58.91;100763.00;4430747;32;19981;-70
2022/04/25 05:25:14;;;;;;;;;;;;;;;9.97;58.90;100769.78;4428201;32;20365;-70
2022/04/25 05:27:41;;;;;;;;;;;;;;;9.90;59.13;100779.16;4424779;32;20327;-70
2022/04/25 05:30:07;;;;;;;;;;;;;;;10.00;58.94;100775.34;4430189;32;20005;-70
2022/04/25 05:32:49;;;;;;;;;;;;;;;9.97;59.05;100779.00;4424954;32;19997;-70
2022/04/25 05:35:15;;;;;;;;;;;;;;;10.05;58.88;100786.06;4432208;32;20003;-70
2022/04/25 05:37:41;;;;;;;;;;;;;;;10.30;58.35;100779.13;4430764;32;20036;-70
2022/04/25 05:40:07;;;;;;;;;;;;;;;10.60;57.29;100785.28;4426108;32;20461;-70
2022/04/25 05:42:34;;;;;;;;;;;;;;;10.60;57.04;100778.84;4427180;32;19972;-70
2022/04/25 05:45:00;;;;;;;;;;;;;;;10.53;57.68;100781.84;4424068;32;19969;-70
2022/04/25 05:47:27;;;;;;;;;;;;;;;10.38;58.12;100772.94;4427360;32;20015;-70
2022/04/25 05:52:38;;;;;;;;;;;;;;;10.34;57.78;100777.81;4426359;32;19949;-70
2022/04/25 05:55:04;;;;;;;;;;;;;;;10.18;58.62;100788.25;4428236;32;20612;-70
2022/04/25 05:57:29;;;;;;;;;;;;;;;10.38;57.66;100791.81;4427866;32;19949;-70
2022/04/25 05:59:55;;;;;;;;;;;;;;;10.22;58.29;100786.16;4424008;32;20011;-70
2022/04/25 06:02:21;;;;;;;;;;;;;;;10.12;58.84;100785.16;4424665;32;19957;-70
2022/04/25 06:04:47;;;;;;;;;;;;;;;10.20;58.65;100791.41;4431263;32;19945;-70
2022/04/25 06:07:13;;;;;;;;;;;;;;;10.48;58.47;100782.34;4427747;32;20007;-70
2022/04/25 06:09:39;;;;;;;;;;;;;;;10.83;56.77;100787.16;4428907;32;20008;-70
2022/04/25 06:12:09;;;;;;;;;;;;;;;10.65;57.46;100783.97;4424628;32;19954;-70
2022/04/25 06:14:35;;;;;;;;;;;;;;;10.73;57.39;100786.16;4424701;32;19997;-68
2022/04/25 06:17:00;;;;;;;;;;;;;;;10.75;56.80;100791.34;4424177;32;20061;-68
2022/04/25 06:19:26;;;;;;;;;;;;;;;10.89;56.98;100796.66;4434473;32;20004;-70
2022/04/25 06:21:51;;;;;;;;;;;;;;;11.06;57.04;100796.22;4430790;32;20621;-71
2022/04/25 06:24:18;;;;;;;;;;;;;;;11.22;56.42;100795.38;4428685;32;20406;-70
2022/04/25 06:26:43;;;;;;;;;;;;;;;11.63;55.71;100801.19;4427448;32;20001;-70
2022/04/25 06:29:09;;;;;;;;;;;;;;;11.96;54.13;100803.44;4430745;32;20352;-70
2022/04/25 06:31:35;;;;;;;;;;;;;;;11.95;53.76;100798.25;4417031;32;19993;-70
2022/04/25 06:34:01;;;;;;;;;;;;;;;12.13;53.66;100807.00;4426836;32;19996;-69
2022/04/25 06:36:26;;;;;;;;;;;;;;;12.29;52.73;100806.13;4418081;32;20008;-70
2022/04/25 06:38:52;;;;;;;;;;;;;;;12.25;52.47;100805.44;4424756;32;20371;-70
2022/04/25 06:41:18;;;;;;;;;;;;;;;12.27;53.18;100803.75;4419087;32;19961;-70
2022/04/25 06:43:43;;;;;;;;;;;;;;;12.37;53.10;100815.97;4424812;32;19957;-70
2022/04/25 06:46:09;;;;;;;;;;;;;;;12.37;52.80;100811.13;4413322;32;20048;-68
2022/04/25 06:48:35;;;;;;;;;;;;;;;12.47;52.55;100807.16;4421734;32;20025;-68
2022/04/25 06:51:01;;;;;;;;;;;;;;;12.51;52.36;100810.66;4418977;32;20346;-68
2022/04/25 06:53:26;;;;;;;;;;;;;;;12.57;52.10;100808.88;4422587;32;20004;-68
2022/04/25 06:55:52;;;;;;;;;;;;;;;12.68;51.54;100805.72;4419727;32;19996;-69
2022/04/25 06:58:18;;;;;;;;;;;;;;;12.81;51.85;100817.78;4425209;32;20030;-68
2022/04/25 07:00:43;;;;;;;;;;;;;;;13.03;50.98;100818.72;4425367;32;20461;-70
2022/04/25 07:03:10;;;;;;;;;;;;;;;13.00;50.70;100819.63;4425094;32;20004;-68
2022/04/25 07:05:37;;;;;;;;;;;;;;;13.34;50.28;100811.19;4424157;32;20122;-69
2022/04/25 07:08:03;;;;;;;;;;;;;;;13.46;49.94;100808.34;4419218;32;20334;-70
2022/04/25 07:10:29;;;;;;;;;;;;;;;13.53;49.50;100810.16;4419635;32;20112;-70
2022/04/25 07:12:56;;;;;;;;;;;;;;;13.68;49.06;100812.00;4418325;32;20797;-70
2022/04/25 07:15:22;;;;;;;;;;;;;;;14.30;47.35;100818.62;4419518;32;20060;-70
2022/04/25 07:17:50;;;;;;;;;;;;;;;14.20;47.95;100821.84;4419747;32;19957;-71
2022/04/25 07:20:16;;;;;;;;;;;;;;;13.68;48.87;100816.87;4417767;32;20574;-71
2022/04/25 07:30:58;;;;;;;;;;;;;;;14.05;47.90;100811.06;4418078;32;19972;-70
2022/04/25 07:33:26;;;;;;;;;;;;;;;14.12;47.99;100812.84;4418112;32;20029;-70
2022/04/25 07:35:53;;;;;;;;;;;;;;;14.35;47.45;100811.59;4415625;32;19997;-70
2022/04/25 07:38:19;;;;;;;;;;;;;;;14.27;47.41;100813.94;4416611;32;20290;-70
2022/04/25 07:40:45;;;;;;;;;;;;;;;14.40;48.12;100811.00;4422156;32;19953;-71
2022/04/25 07:43:11;;;;;;;;;;;;;;;14.90;46.57;100814.25;4418537;32;20011;-71
2022/04/25 07:45:36;;;;;;;;;;;;;;;15.29;45.42;100813.44;4414987;32;20021;-71
2022/04/25 07:48:02;;;;;;;;;;;;;;;15.33;45.30;100814.06;4419781;32;20001;-71
2022/04/25 07:50:28;;;;;;;;;;;;;;;15.70;44.61;100817.75;4410694;32;19999;-71
2022/04/25 07:52:53;;;;;;;;;;;;;;;15.84;44.50;100822.81;4416080;32;19961;-71
2022/04/25 07:55:19;;;;;;;;;;;;;;;15.93;44.75;100832.09;4417700;32;20227;-70
2022/04/25 07:57:45;;;;;;;;;;;;;;;15.89;44.62;100828.62;4419337;32;19981;-70
2022/04/25 08:00:10;;;;;;;;;;;;;;;16.02;44.18;100834.94;4417711;32;19985;-71
2022/04/25 08:02:36;;;;;;;;;;;;;;;15.98;44.41;100828.66;4417777;32;20004;-70
2022/04/25 08:05:02;;;;;;;;;;;;;;;16.45;43.75;100838.72;4419657;32;19984;-70
2022/04/25 08:07:29;;;;;;;;;;;;;;;16.44;44.03;100843.59;4414309;32;19985;-70
2022/04/25 08:09:55;;;;;;;;;;;;;;;16.37;43.96;100835.38;4414386;32;20455;-71
2022/04/25 08:18:00;;;;;;;;;;;;;;;16.88;42.94;100844.72;4416088;32;19962;-71
2022/04/25 08:20:30;;;;;;;;;;;;;;;17.16;42.42;100851.09;4420611;32;20064;-70
2022/04/25 08:22:56;;;;;;;;;;;;;;;17.29;42.15;100851.66;4415253;32;20001;-71
2022/04/25 08:25:22;;;;;;;;;;;;;;;17.15;42.25;100847.47;4417014;32;20448;-70
2022/04/25 08:27:48;;;;;;;;;;;;;;;17.07;42.79;100851.94;4413180;32;20001;-71
2022/04/25 08:30:14;;;;;;;;;;;;;;;17.33;42.19;100852.25;4412704;32;20331;-70
2022/04/25 08:32:40;;;;;;;;;;;;;;;17.68;41.39;100856.97;4418643;32;19991;-71
2022/04/25 08:35:06;;;;;;;;;;;;;;;18.10;40.63;100858.91;4415273;32;20087;-70
2022/04/25 08:37:32;;;;;;;;;;;;;;;18.20;40.51;100860.37;4415615;32;20340;-71
2022/04/25 08:39:58;;;;;;;;;;;;;;;18.25;40.17;100854.03;4416693;32;20011;-71
2022/04/25 08:42:24;;;;;;;;;;;;;;;18.37;39.78;100855.81;4413603;32;20009;-71
2022/04/25 08:44:52;;;;;;;;;;;;;;;18.45;39.78;100857.81;4420412;32;20782;-70
2022/04/25 08:47:18;;;;;;;;;;;;;;;19.20;38.48;100863.75;4416568;32;20040;-70
2022/04/25 08:49:43;;;;;;;;;;;;;;;19.14;38.30;100868.56;4419402;32;20295;-71
2022/04/25 08:52:09;;;;;;;;;;;;;;;19.39;38.03;100867.97;4415392;32;20053;-71
2022/04/25 08:54:35;;;;;;;;;;;;;;;19.19;38.05;100873.59;4420260;32;20253;-70
2022/04/25 08:57:03;;;;;;;;;;;;;;;18.41;39.77;100870.69;4417574;32;20007;-71
2022/04/25 08:59:30;;;;;;;;;;;;;;;17.82;40.73;100866.84;4416304;32;20449;-73
2022/04/25 09:01:57;;;;;;;;;;;;;;;18.20;40.24;100874.63;4413757;32;19998;-71
2022/04/25 09:04:24;;;;;;;;;;;;;;;17.77;40.99;100876.84;4415805;32;19980;-70
2022/04/25 09:06:51;;;;;;;;;;;;;;;17.73;41.25;100878.28;4417317;32;19958;-70
2022/04/25 09:09:18;;;;;;;;;;;;;;;17.99;40.75;100873.69;4419539;32;19997;-70
2022/04/25 09:12:14;;;;;;;;;;;;;;;17.82;40.53;100881.88;4412889;32;19997;-71
2022/04/25 09:14:30;;;;;;;;;;;;;;;17.86;41.00;100882.47;4416617;32;20004;-70
2022/04/25 09:16:56;;;;;;;;;;;;;;;17.52;41.30;100883.00;4415135;32;20255;-70
2022/04/25 09:19:22;;;;;;;;;;;;;;;17.33;41.95;100889.25;4416428;32;20869;-70
2022/04/25 09:21:48;;;;;;;;;;;;;;;17.68;40.89;100885.44;4412623;32;20326;-70
2022/04/25 09:24:30;;;;;;;;;;;;;;;17.40;41.55;100892.53;4416768;32;19957;-70
2022/04/25 09:27:12;;;;;;;;;;;;;;;17.43;41.49;100896.53;4412984;32;20008;-69
2022/04/25 09:29:38;;;;;;;;;;;;;;;17.89;40.52;100897.81;4412687;32;20053;-69
2022/04/25 09:32:04;;;;;;;;;;;;;;;18.04;40.58;100897.87;4411775;32;19989;-70
2022/04/25 09:35:02;;;;;;;;;;;;;;;18.14;40.09;100908.72;4413072;32;20008;-70
2022/04/25 09:37:16;;;;;;;;;;;;;;;18.13;40.15;100906.34;4412634;32;19987;-68
2022/04/25 09:39:41;;;;;;;;;;;;;;;18.14;40.26;100905.06;4415180;32;20354;-70
2022/04/25 09:42:08;;;;;;;;;;;;;;;18.07;40.24;100902.59;4418486;32;20241;-70
2022/04/25 09:44:52;;;;;;;;;;;;;;;18.20;39.90;100900.25;4413225;32;20328;-71
2022/04/25 09:47:36;;;;;;;;;;;;;;;18.46;39.58;100909.88;4407278;32;20333;-70
2022/04/25 09:55:34;;;;;;;;;;;;;;;17.53;41.62;100910.22;3946930;32;15723498;-71
2022/04/25 09:58:17;;;;;;;;;;;;;;;17.53;41.62;100910.22;4419781;32;20161;-71
2022/04/25 10:00:42;;;;;;;;;;;;;;;16.81;42.94;100909.69;4419559;32;19946;-71
2022/04/25 10:03:08;;;;;;;;;;;;;;;16.68;43.63;100906.22;4419598;32;20001;-71
2022/04/25 10:05:43;;;;;;;;;;;;;;;16.92;42.95;100918.47;4421083;32;19965;-69
2022/04/25 10:08:10;;;;;;;;;;;;;;;17.04;42.80;100914.66;4422028;32;19990;-69
2022/04/25 10:10:39;;;;;;;;;;;;;;;16.92;42.96;100919.28;4423334;32;20016;-69
2022/04/25 10:13:04;;;;;;;;;;;;;;;16.70;43.69;100910.19;4422351;32;20006;-69
2022/04/25 10:15:30;;;;;;;;;;;;;;;16.56;43.90;100907.19;4421943;32;19969;-70
2022/04/25 10:17:55;;;;;;;;;;;;;;;16.86;43.55;100911.87;4423240;32;19981;-70
2022/04/25 10:20:21;;;;;;;;;;;;;;;16.92;43.73;100910.75;4420136;32;19992;-70
2022/04/25 10:22:46;;;;;;;;;;;;;;;17.20;42.97;100906.53;4417586;32;20012;-70
2022/04/25 10:25:12;;;;;;;;;;;;;;;16.92;43.43;100912.78;4423820;32;20008;-71
2022/04/25 10:27:41;;;;;;;;;;;;;;;17.30;42.86;100913.75;4421799;32;20297;-71
2022/04/25 10:30:26;;;;;;;;;;;;;;;17.44;42.54;100910.25;4422530;32;20062;-70
2022/04/25 10:32:52;;;;;;;;;;;;;;;18.49;40.74;100921.09;4420329;32;20000;-70
2022/04/25 10:35:30;;;;;;;;;;;;;;;18.85;39.92;100920.75;4425687;32;19965;-71
2022/04/25 10:37:56;;;;;;;;;;;;;;;19.14;38.83;100917.06;4422436;32;20337;-70
2022/04/25 10:44:10;;;;;;;;;;;;;;;19.13;39.45;100922.00;4418625;32;19980;-71
2022/04/25 10:46:14;;;;;;;;;;;;;;;20.02;37.27;100920.50;4419483;32;20442;-70
2022/04/25 10:48:59;;;;;;;;;;;;;;;19.90;37.58;100924.50;4422772;32;20005;-70
2022/04/25 10:51:37;;;;;;;;;;;;;;;19.83;37.48;100920.78;4422518;32;20115;-71
2022/04/25 10:54:05;;;;;;;;;;;;;;;19.78;37.91;100926.41;4421199;32;19957;-70
2022/04/25 10:56:31;;;;;;;;;;;;;;;19.77;37.63;100928.50;4421430;32;20298;-70
2022/04/25 10:59:17;;;;;;;;;;;;;;;19.90;37.64;100924.50;4423008;32;20009;-70
2022/04/25 11:01:44;;;;;;;;;;;;;;;19.89;37.74;100932.28;4424233;32;19988;-70
2022/04/25 11:04:13;;;;;;;;;;;;;;;19.72;37.66;100934.12;4422303;32;20416;-70
2022/04/25 11:06:41;;;;;;;;;;;;;;;19.26;38.27;100933.09;4416982;32;20329;-70
2022/04/25 11:09:07;;;;;;;;;;;;;;;19.20;38.87;100940.78;4408966;32;19982;-70
2022/04/25 11:11:49;;;;;;;;;;;;;;;18.73;40.14;100944.63;4410577;32;20649;-70
2022/04/25 11:14:15;;;;;;;;;;;;;;;18.54;40.82;100948.94;4406212;32;19965;-70
2022/04/25 11:16:41;;;;;;;;;;;;;;;18.52;40.76;100950.66;4410726;32;20421;-70
2022/04/25 11:19:08;;;;;;;;;;;;;;;18.38;41.20;100943.66;4412414;32;20044;-70
2022/04/25 11:21:34;;;;;;;;;;;;;;;18.13;41.80;100949.06;4408822;32;19975;-70
2022/04/25 11:24:01;;;;;;;;;;;;;;;18.16;42.02;100943.16;4403456;32;19973;-70
2022/04/25 11:29:08;;;;;;;;;;;;;;;19.06;40.66;100938.75;3948919;32;15723369;-70
2022/04/25 11:31:34;;;;;;;;;;;;;;;19.06;40.66;100938.75;4425816;32;19957;-70
2022/04/25 11:34:04;;;;;;;;;;;;;;;17.78;42.72;100943.13;4420574;32;19984;-70
2022/04/25 11:36:30;;;;;;;;;;;;;;;17.73;42.82;100944.56;4423901;32;20000;-70
2022/04/25 11:41:44;;;;;;;;;;;;;;;17.67;43.18;100942.84;4423342;32;19961;-70
2022/04/25 11:44:09;;;;;;;;;;;;;;;17.66;43.27;100944.94;4423577;32;20022;-70
2022/04/25 11:46:36;;;;;;;;;;;;;;;17.75;42.90;100942.03;4425938;32;19993;-70
2022/04/25 11:49:02;;;;;;;;;;;;;;;17.71;42.62;100934.94;4426831;32;19993;-70
2022/04/25 11:51:29;;;;;;;;;;;;;;;17.49;42.92;100940.88;4419581;32;20000;-71
2022/04/25 11:53:58;;;;;;;;;;;;;;;17.38;43.03;100936.97;4424117;32;20008;-70
2022/04/25 11:56:25;;;;;;;;;;;;;;;17.49;42.49;100926.66;4427391;32;20201;-70
2022/04/25 11:58:52;;;;;;;;;;;;;;;17.83;42.36;100951.00;4420844;32;20197;-70
2022/04/25 12:01:33;;;;;;;;;;;;;;;18.33;40.98;100940.66;4411310;32;20428;-70
2022/04/25 12:04:18;;;;;;;;;;;;;;;18.64;40.21;100941.84;4421413;32;19994;-70
2022/04/25 12:17:46;;;;;;;;;;;;;;;18.82;39.03;100960.84;4438940;32;20000;-70
2022/04/25 12:20:14;;;;;;;;;;;;;;;19.67;37.34;100957.69;4437562;32;19971;-70
2022/04/25 12:22:49;;;;;;;;;;;;;;;19.92;36.64;100954.16;4437259;32;20011;-70
2022/04/25 12:25:17;;;;;;;;;;;;;;;19.92;36.33;100948.44;4436937;32;20005;-70
2022/04/25 12:28:01;;;;;;;;;;;;;;;20.54;35.00;100959.37;4436631;32;20264;-70
2022/04/25 12:30:28;;;;;;;;;;;;;;;21.08;33.95;100958.44;4435734;32;20046;-70
2022/04/25 12:33:09;;;;;;;;;;;;;;;21.19;33.02;100956.47;4438019;32;20012;-71
2022/04/25 12:35:35;;;;;;;;;;;;;;;21.40;32.92;100962.87;4438249;32;20004;-70
2022/04/25 12:38:02;;;;;;;;;;;;;;;21.25;33.09;100963.03;4439189;32;20012;-71
2022/04/25 12:40:27;;;;;;;;;;;;;;;21.23;33.21;100968.47;4439506;32;20439;-70
2022/04/25 12:42:54;;;;;;;;;;;;;;;21.04;33.42;100964.38;4437053;32;19992;-70
2022/04/25 12:45:21;;;;;;;;;;;;;;;20.89;33.45;100968.63;4440074;32;19974;-71
2022/04/25 12:47:54;;;;;;;;;;;;;;;21.04;33.31;100966.44;4438444;32;20004;-70
2022/04/25 12:50:40;;;;;;;;;;;;;;;21.57;32.61;100972.41;4436690;32;20013;-70
2022/04/25 12:53:06;;;;;;;;;;;;;;;22.61;30.98;100962.87;4436637;32;20001;-71
2022/04/25 12:55:48;;;;;;;;;;;;;;;23.77;29.10;100971.63;4435362;32;20394;-71
2022/04/25 12:58:15;;;;;;;;;;;;;;;24.05;28.37;100973.16;4434750;32;20347;-71
2022/04/25 13:00:42;;;;;;;;;;;;;;;24.47;27.59;100978.50;4439145;32;20382;-71
2022/04/25 13:03:09;;;;;;;;;;;;;;;24.08;27.95;100983.59;4438078;32;20094;-70
2022/04/25 13:05:35;;;;;;;;;;;;;;;24.29;27.64;100987.72;4437219;32;20083;-71
2022/04/25 13:08:00;;;;;;;;;;;;;;;24.52;27.14;100985.56;4436725;32;20427;-71
2022/04/25 13:10:25;;;;;;;;;;;;;;;25.18;26.65;100983.09;4435914;32;19980;-70
2022/04/25 13:12:55;;;;;;;;;;;;;;;25.31;24.97;100989.06;4435116;32;19973;-71
2022/04/25 13:15:22;;;;;;;;;;;;;;;25.83;24.51;100988.88;4435535;32;20356;-71
2022/04/25 13:17:48;;;;;;;;;;;;;;;26.20;23.98;100985.38;4436947;32;19953;-71
2022/04/25 13:20:16;;;;;;;;;;;;;;;25.81;24.36;100982.09;4429727;32;20411;-71
2022/04/25 13:22:43;;;;;;;;;;;;;;;25.79;24.69;100985.50;4425768;32;19993;-70
2022/04/25 13:25:09;;;;;;;;;;;;;;;24.91;26.14;100986.94;4425850;32;19972;-70
2022/04/25 13:27:35;;;;;;;;;;;;;;;24.40;26.89;100984.81;4425121;32;19972;-70
2022/04/25 13:30:02;;;;;;;;;;;;;;;24.73;26.82;100987.56;4424960;32;20370;-70
2022/04/25 13:32:27;;;;;;;;;;;;;;;25.37;25.86;100991.12;4424760;32;20004;-70